createdAt,value
2022-09-02T00:23:11.948Z,56
2022-09-02T00:52:31.409Z,57
2022-09-02T01:22:01.626Z,58
2022-09-02T01:51:28.161Z,58
2022-09-02T02:20:54.363Z,58
2022-09-02T02:50:14.468Z,59
2022-09-02T03:19:38.474Z,59
2022-09-02T03:48:59.211Z,60
2022-09-02T04:18:21.777Z,60
2022-09-02T04:47:47.500Z,60
2022-09-02T05:17:08.603Z,61
2022-09-02T05:45:59.120Z,62
2022-09-02T06:15:08.053Z,63
2022-09-02T06:44:26.955Z,65
2022-09-02T07:13:55.222Z,66
2022-09-02T07:43:12.461Z,63
2022-09-02T08:12:34.526Z,60
2022-09-02T08:41:55.570Z,58
2022-09-02T09:11:22.391Z,54
2022-09-02T09:40:44.707Z,53
2022-09-02T10:10:10.192Z,48
2022-09-02T10:39:35.399Z,45
2022-09-02T11:08:47.405Z,41
2022-09-02T11:38:02.346Z,41
2022-09-02T12:07:34.509Z,37
2022-09-02T12:36:32.278Z,37
2022-09-02T13:05:41.587Z,40
2022-09-02T13:35:04.873Z,43
2022-09-02T14:04:16.095Z,42
2022-09-02T14:33:25.687Z,41
2022-09-02T15:02:49.700Z,38
2022-09-02T15:32:12.368Z,39
2022-09-02T16:01:32.301Z,40
2022-09-02T16:30:47.493Z,41
2022-09-02T16:59:44.129Z,43
2022-09-02T17:29:08.015Z,46
2022-09-02T17:58:24.947Z,46
2022-09-02T18:27:52.612Z,47
2022-09-02T18:56:40.196Z,47
2022-09-02T19:26:05.213Z,48
2022-09-02T19:55:28.104Z,50
2022-09-02T20:24:48.326Z,50
2022-09-02T20:54:12.282Z,52
2022-09-02T21:23:39.924Z,52
2022-09-02T21:53:08.929Z,52
2022-09-02T22:22:14.610Z,53
2022-09-02T22:51:36.070Z,54
2022-09-02T23:20:52.309Z,54
2022-09-02T23:50:09.894Z,58
